Time;durP1;ratioP1;P1;durP2;ratioP2;P2;SDS_P1;SDS_P2;PMS_P1;PMS_P2;Temp;Humidity;BMP_temperature;BMP_pressure;BME280_temperature;BME280_humidity;BME280_pressure;Samples;Min_cycle;Max_cycle;Signal;HPM_P1;HPM_P2
2023/07/10 00:02:20;;;;;;;5.10;3.07;;;23.60;44.10;;;;;;5198988;28;20194;-43
2023/07/10 00:04:51;;;;;;;3.80;3.60;;;23.60;44.30;;;;;;5195935;28;20438;-44
2023/07/10 00:07:21;;;;;;;3.47;3.20;;;23.50;44.50;;;;;;5202239;28;20215;-44
2023/07/10 00:09:52;;;;;;;3.00;2.80;;;23.40;44.60;;;;;;5190361;28;20590;-44
2023/07/10 00:12:22;;;;;;;3.23;3.00;;;23.40;44.90;;;;;;5202771;28;20188;-43
2023/07/10 00:14:53;;;;;;;4.93;3.50;;;23.30;44.90;;;;;;5205757;28;20215;-43
2023/07/10 00:17:24;;;;;;;9.63;2.80;;;23.30;45.10;;;;;;5202361;28;20254;-44
2023/07/10 00:19:54;;;;;;;6.67;3.30;;;23.30;45.30;;;;;;5201336;28;20643;-44
2023/07/10 00:22:25;;;;;;;7.43;3.90;;;23.30;45.30;;;;;;5195313;28;20196;-44
2023/07/10 00:24:55;;;;;;;3.00;2.90;;;23.30;45.40;;;;;;5206533;28;20191;-44
2023/07/10 00:27:26;;;;;;;3.40;3.10;;;23.20;45.40;;;;;;5188069;28;20216;-43
2023/07/10 00:29:57;;;;;;;3.70;3.50;;;23.20;45.50;;;;;;5205815;28;20361;-44
2023/07/10 00:32:27;;;;;;;3.63;3.33;;;23.20;45.50;;;;;;5201533;28;20229;-44
2023/07/10 00:34:58;;;;;;;3.57;3.37;;;23.20;45.50;;;;;;5199137;28;20183;-44
2023/07/10 00:37:28;;;;;;;3.87;3.00;;;23.20;45.50;;;;;;5182276;28;20310;-44
2023/07/10 00:39:59;;;;;;;7.23;3.03;;;23.20;45.50;;;;;;5197044;28;20200;-44
2023/07/10 00:42:30;;;;;;;3.17;2.90;;;23.10;45.60;;;;;;5203027;28;20190;-43
2023/07/10 00:45:04;;;;;;;3.60;3.20;;;23.10;45.70;;;;;;5212534;28;20186;-44
2023/07/10 00:47:38;;;;;;;3.10;2.90;;;23.10;45.70;;;;;;5207505;28;20178;-43
2023/07/10 00:50:13;;;;;;;5.30;3.70;;;23.10;45.70;;;;;;5199886;28;20461;-43
2023/07/10 00:52:49;;;;;;;2.80;2.60;;;23.10;45.60;;;;;;5201215;28;20429;-44
2023/07/10 00:55:22;;;;;;;2.83;2.63;;;23.10;45.60;;;;;;5211837;28;20747;-43
2023/07/10 00:58:06;;;;;;;9.60;3.77;;;23.20;45.70;;;;;;5198612;28;20482;-43
2023/07/10 01:00:36;;;;;;;4.50;3.00;;;23.20;46.10;;;;;;5201771;28;20469;-43
2023/07/10 01:03:13;;;;;;;2.83;2.63;;;23.20;46.00;;;;;;5205329;28;20435;-43
2023/07/10 01:05:43;;;;;;;8.60;2.90;;;23.20;45.70;;;;;;5189548;28;20222;-43
2023/07/10 01:08:14;;;;;;;2.73;2.53;;;23.30;45.90;;;;;;5201903;28;20520;-42
2023/07/10 01:10:44;;;;;;;2.93;2.83;;;23.30;46.40;;;;;;5206725;28;20636;-43
2023/07/10 01:13:15;;;;;;;5.20;3.87;;;23.30;46.60;;;;;;5179417;28;20188;-44
2023/07/10 01:15:46;;;;;;;4.73;4.33;;;23.40;46.70;;;;;;5190046;28;20235;-44
2023/07/10 01:18:18;;;;;;;9.07;5.87;;;23.30;46.80;;;;;;5204060;28;20195;-43
2023/07/10 01:20:51;;;;;;;7.40;4.33;;;23.20;46.70;;;;;;5199605;28;20208;-43
2023/07/10 01:23:22;;;;;;;6.23;3.63;;;23.30;47.00;;;;;;5203560;28;20468;-44
2023/07/10 01:25:57;;;;;;;8.63;3.50;;;23.30;46.90;;;;;;5199500;28;20461;-43
2023/07/10 01:28:28;;;;;;;3.77;2.90;;;23.30;46.90;;;;;;5202397;28;20493;-44
2023/07/10 01:31:00;;;;;;;3.13;2.93;;;23.20;46.80;;;;;;5195580;28;20574;-42
2023/07/10 01:33:47;;;;;;;3.53;3.33;;;23.10;46.80;;;;;;5200935;28;20177;-43
2023/07/10 01:36:21;;;;;;;3.10;2.90;;;23.10;47.00;;;;;;5198203;28;20434;-43
2023/07/10 01:39:10;;;;;;;2.97;2.73;;;23.10;47.10;;;;;;5206601;28;20458;-43
2023/07/10 01:41:43;;;;;;;4.43;3.97;;;23.10;47.10;;;;;;5205737;28;20457;-43
2023/07/10 01:44:27;;;;;;;3.30;3.10;;;23.10;47.60;;;;;;5200136;28;20960;-43
2023/07/10 01:46:59;;;;;;;3.80;3.20;;;23.00;47.60;;;;;;5204037;28;20460;-43
2023/07/10 01:49:42;;;;;;;4.40;3.90;;;22.90;47.70;;;;;;5205233;28;20581;-43
2023/07/10 01:52:14;;;;;;;3.90;3.40;;;22.90;48.00;;;;;;5197164;28;20447;-43
2023/07/10 01:54:45;;;;;;;4.53;4.10;;;22.70;48.00;;;;;;5201152;28;20430;-43
2023/07/10 01:57:17;;;;;;;8.03;3.33;;;22.70;48.30;;;;;;5173691;28;20438;-43
2023/07/10 01:59:48;;;;;;;3.20;3.00;;;22.60;48.60;;;;;;5208113;28;20192;-44
2023/07/10 02:02:19;;;;;;;5.07;3.60;;;22.60;49.20;;;;;;5201512;28;20448;-44
2023/07/10 02:04:50;;;;;;;4.57;4.00;;;22.60;49.00;;;;;;5190261;28;20179;-43
2023/07/10 02:07:20;;;;;;;4.13;3.73;;;22.50;49.40;;;;;;5178886;28;20266;-43
2023/07/10 02:09:51;;;;;;;17.83;4.20;;;22.50;49.70;;;;;;5199764;28;20231;-43
2023/07/10 02:12:22;;;;;;;4.73;3.97;;;22.50;50.00;;;;;;5196446;28;20272;-44
2023/07/10 02:14:52;;;;;;;17.70;3.63;;;22.40;50.10;;;;;;5206890;28;20175;-42
2023/07/10 02:17:23;;;;;;;3.60;3.40;;;22.40;49.70;;;;;;5204757;28;20238;-43
2023/07/10 02:19:53;;;;;;;8.73;4.13;;;22.30;49.90;;;;;;5199019;28;20208;-42
2023/07/10 02:22:24;;;;;;;4.17;3.83;;;22.20;50.20;;;;;;5197952;28;20219;-43
2023/07/10 02:24:54;;;;;;;4.70;4.30;;;22.20;50.60;;;;;;5198104;28;20188;-43
2023/07/10 02:27:25;;;;;;;4.63;4.17;;;22.10;51.10;;;;;;5199653;28;20211;-43
2023/07/10 02:29:56;;;;;;;4.10;3.70;;;22.00;51.40;;;;;;5196177;28;20214;-42
2023/07/10 02:32:27;;;;;;;5.00;4.23;;;21.90;51.90;;;;;;5204312;28;20185;-42
2023/07/10 02:34:57;;;;;;;5.43;4.03;;;21.80;52.20;;;;;;5200462;28;20195;-42
2023/07/10 02:37:28;;;;;;;4.37;3.97;;;21.80;52.40;;;;;;5195878;28;20703;-43
2023/07/10 02:39:58;;;;;;;3.20;3.07;;;21.70;52.70;;;;;;5186163;28;20208;-43
2023/07/10 02:42:29;;;;;;;5.00;4.60;;;21.70;52.80;;;;;;5188552;28;20195;-43
2023/07/10 02:45:00;;;;;;;6.00;4.20;;;21.70;53.00;;;;;;5181931;28;20304;-42
2023/07/10 02:47:30;;;;;;;4.20;3.90;;;21.70;53.30;;;;;;5205497;28;20211;-43
2023/07/10 02:50:01;;;;;;;4.37;3.97;;;21.60;53.80;;;;;;5207964;28;20218;-44
2023/07/10 02:52:32;;;;;;;4.30;3.60;;;21.50;54.20;;;;;;5206417;28;20190;-43
2023/07/10 02:55:03;;;;;;;5.10;3.87;;;21.40;54.50;;;;;;5210864;28;20188;-44
2023/07/10 02:57:34;;;;;;;3.90;3.60;;;21.40;54.90;;;;;;5208180;28;20228;-44
2023/07/10 03:00:05;;;;;;;4.43;4.10;;;21.30;55.30;;;;;;5204620;28;20851;-43
2023/07/10 03:02:36;;;;;;;5.20;4.70;;;21.20;55.60;;;;;;5200842;28;20190;-43
2023/07/10 03:05:07;;;;;;;7.87;4.60;;;21.10;55.80;;;;;;5181191;28;20931;-44
2023/07/10 03:07:38;;;;;;;5.30;4.60;;;21.10;56.10;;;;;;5193781;28;20195;-42
2023/07/10 03:10:10;;;;;;;5.43;3.83;;;21.00;56.30;;;;;;5207555;28;20454;-42
2023/07/10 03:12:40;;;;;;;22.17;4.37;;;21.00;56.40;;;;;;5207670;28;20204;-43
2023/07/10 03:15:11;;;;;;;6.73;4.27;;;21.00;56.40;;;;;;5209714;28;20425;-42
2023/07/10 03:17:42;;;;;;;4.13;3.83;;;20.90;56.40;;;;;;5221596;28;20182;-42
2023/07/10 03:20:12;;;;;;;4.47;3.87;;;20.90;56.50;;;;;;5208044;28;20453;-43
2023/07/10 03:22:43;;;;;;;4.93;4.43;;;20.90;56.50;;;;;;5188152;28;20180;-43
2023/07/10 03:25:14;;;;;;;4.00;3.67;;;20.90;56.50;;;;;;5208755;28;20226;-43
2023/07/10 03:27:47;;;;;;;12.37;3.83;;;21.00;56.30;;;;;;5198784;28;20176;-43
2023/07/10 03:30:18;;;;;;;3.90;3.60;;;21.00;56.20;;;;;;5200476;28;20239;-43
2023/07/10 03:32:49;;;;;;;4.23;3.47;;;21.10;56.10;;;;;;5208856;28;20954;-44
2023/07/10 03:35:20;;;;;;;9.13;3.97;;;21.10;55.70;;;;;;5191137;28;20225;-43
2023/07/10 03:37:50;;;;;;;3.67;3.40;;;21.20;56.00;;;;;;5198956;28;20938;-43
2023/07/10 03:40:21;;;;;;;5.67;3.60;;;21.20;55.90;;;;;;5203188;28;20223;-42
2023/07/10 03:42:52;;;;;;;4.17;3.73;;;21.20;55.90;;;;;;5193317;28;20206;-44
2023/07/10 03:45:22;;;;;;;4.23;3.80;;;21.20;55.90;;;;;;5199014;28;20179;-43
2023/07/10 03:47:53;;;;;;;7.87;3.97;;;21.20;55.80;;;;;;5206521;28;20273;-43
2023/07/10 03:50:24;;;;;;;3.63;3.43;;;21.20;55.80;;;;;;5202057;28;20215;-43
2023/07/10 03:52:54;;;;;;;7.37;4.10;;;21.20;55.80;;;;;;5190911;28;20188;-42
2023/07/10 03:55:25;;;;;;;3.57;3.37;;;21.20;55.80;;;;;;5188091;28;20507;-43
2023/07/10 03:57:55;;;;;;;3.23;3.13;;;21.30;55.70;;;;;;5202976;28;20180;-43
2023/07/10 04:00:26;;;;;;;10.30;3.90;;;21.30;55.70;;;;;;5184317;28;20207;-44
2023/07/10 04:02:57;;;;;;;6.47;3.90;;;21.40;55.60;;;;;;5206097;28;20215;-43
2023/07/10 04:05:27;;;;;;;4.20;3.60;;;21.40;55.50;;;;;;5190302;28;20200;-44
2023/07/10 04:07:58;;;;;;;6.43;3.30;;;21.40;55.40;;;;;;5202619;28;20183;-43
2023/07/10 04:10:28;;;;;;;5.50;3.70;;;21.50;55.20;;;;;;5201694;28;20204;-43
2023/07/10 04:12:59;;;;;;;5.40;3.77;;;21.50;54.90;;;;;;5204023;28;20180;-44
2023/07/10 04:15:30;;;;;;;7.67;4.17;;;21.50;54.80;;;;;;5200971;28;20771;-44
2023/07/10 04:18:00;;;;;;;6.30;3.90;;;21.50;55.30;;;;;;5205289;28;20195;-42
2023/07/10 04:20:31;;;;;;;4.97;4.50;;;21.60;54.80;;;;;;5211044;28;20684;-43
2023/07/10 04:23:01;;;;;;;8.50;4.20;;;21.60;54.70;;;;;;5205326;28;20207;-43
2023/07/10 04:25:32;;;;;;;12.40;3.93;;;21.60;54.30;;;;;;5202158;28;20214;-43
2023/07/10 04:28:03;;;;;;;6.00;3.70;;;21.70;54.00;;;;;;5203795;28;20193;-43
2023/07/10 04:30:33;;;;;;;3.67;3.40;;;21.70;53.80;;;;;;5189425;28;20204;-44
2023/07/10 04:33:08;;;;;;;4.27;3.87;;;21.80;53.50;;;;;;5208793;28;20182;-43
2023/07/10 04:35:39;;;;;;;4.20;3.80;;;21.90;53.10;;;;;;5195169;28;20189;-42
2023/07/10 04:38:10;;;;;;;5.47;3.43;;;22.10;52.90;;;;;;5206412;28;20832;-43
2023/07/10 04:40:51;;;;;;;6.67;4.43;;;22.20;52.70;;;;;;5203801;28;20527;-43
2023/07/10 04:43:23;;;;;;;3.77;3.33;;;22.30;52.60;;;;;;5205269;28;20449;-42
2023/07/10 04:45:56;;;;;;;3.80;3.50;;;22.30;52.30;;;;;;5209412;28;20569;-42
2023/07/10 04:48:26;;;;;;;4.17;3.87;;;22.30;52.20;;;;;;5191174;28;20546;-43
2023/07/10 04:51:03;;;;;;;3.63;3.43;;;22.40;52.20;;;;;;5227700;22;20742;-46
2023/07/10 04:53:34;;;;;;;9.27;3.83;;;22.50;51.90;;;;;;5239916;28;20185;-45
2023/07/10 04:56:06;;;;;;;6.97;4.40;;;22.80;51.70;;;;;;5249538;28;20797;-46
2023/07/10 04:58:57;;;;;;;5.47;4.20;;;23.10;51.10;;;;;;5227645;28;20435;-46
2023/07/10 05:01:32;;;;;;;11.57;4.77;;;23.50;50.30;;;;;;5232401;28;20452;-47
2023/07/10 05:04:03;;;;;;;7.83;3.70;;;23.90;49.80;;;;;;5215852;28;20429;-46
2023/07/10 05:06:37;;;;;;;6.83;4.03;;;24.10;48.40;;;;;;5245481;28;20455;-46
2023/07/10 05:09:07;;;;;;;5.70;3.00;;;24.20;48.30;;;;;;5231871;28;20265;-48
2023/07/10 05:11:38;;;;;;;4.50;3.80;;;24.40;47.90;;;;;;5236397;28;20503;-48
2023/07/10 05:14:08;;;;;;;4.50;3.30;;;24.50;47.90;;;;;;5247481;28;20210;-46
2023/07/10 05:16:39;;;;;;;5.03;3.67;;;24.40;48.10;;;;;;5240905;28;20535;-47
2023/07/10 05:19:10;;;;;;;5.30;3.40;;;24.30;48.60;;;;;;5230432;28;20243;-46
2023/07/10 05:21:40;;;;;;;7.83;3.40;;;24.10;49.40;;;;;;5236250;28;20723;-47
2023/07/10 05:24:11;;;;;;;5.70;3.77;;;23.80;49.30;;;;;;5225463;28;20200;-46
2023/07/10 05:26:42;;;;;;;3.70;3.10;;;23.50;49.50;;;;;;5241277;28;20630;-45
2023/07/10 05:29:13;;;;;;;6.80;3.70;;;23.10;51.50;;;;;;5230262;28;20214;-46
2023/07/10 05:31:43;;;;;;;5.10;4.63;;;22.70;54.80;;;;;;5246512;28;20833;-46
2023/07/10 05:34:15;;;;;;;7.60;3.30;;;22.50;56.40;;;;;;5229621;28;20186;-46
2023/07/10 05:36:46;;;;;;;5.73;3.57;;;22.30;55.10;;;;;;5224789;28;20327;-48
2023/07/10 05:39:16;;;;;;;8.80;3.90;;;22.40;55.70;;;;;;5246749;28;20460;-46
2023/07/10 05:41:47;;;;;;;4.47;3.50;;;22.40;55.70;;;;;;5242716;28;20289;-47
2023/07/10 05:44:18;;;;;;;9.10;4.87;;;22.40;56.40;;;;;;5235660;28;20190;-46
2023/07/10 05:46:48;;;;;;;12.50;5.00;;;22.50;56.20;;;;;;5225203;28;20298;-45
2023/07/10 05:49:20;;;;;;;6.23;4.33;;;22.50;56.30;;;;;;5225235;28;20175;-47
2023/07/10 05:51:52;;;;;;;5.83;3.57;;;22.50;56.40;;;;;;5233184;28;20566;-47
2023/07/10 05:54:23;;;;;;;6.60;3.93;;;22.40;57.00;;;;;;5249261;28;20428;-46
2023/07/10 05:56:53;;;;;;;3.77;3.47;;;22.30;57.40;;;;;;5240165;28;20429;-45
2023/07/10 05:59:24;;;;;;;9.40;4.57;;;22.00;59.20;;;;;;5246301;28;20265;-47
2023/07/10 06:01:54;;;;;;;9.70;4.50;;;21.50;64.60;;;;;;5219924;28;20752;-46
2023/07/10 06:04:25;;;;;;;10.17;5.20;;;21.00;67.20;;;;;;5248645;28;20182;-47
2023/07/10 06:06:56;;;;;;;5.37;4.77;;;20.40;73.90;;;;;;5250272;28;20201;-48
2023/07/10 06:09:26;;;;;;;13.43;5.40;;;19.90;86.90;;;;;;5251230;28;20182;-47
2023/07/10 06:11:57;;;;;;;13.50;6.33;;;19.40;98.40;;;;;;5248982;28;20800;-47
2023/07/10 06:14:28;;;;;;;11.97;6.00;;;19.10;99.90;;;;;;5237140;28;20235;-47
2023/07/10 06:17:00;;;;;;;10.40;6.90;;;18.70;99.90;;;;;;5237951;28;20433;-46
2023/07/10 06:19:31;;;;;;;13.60;6.80;;;18.40;99.90;;;;;;5241077;28;20179;-47
2023/07/10 06:22:07;;;;;;;7.33;6.10;;;18.10;99.90;;;;;;5222121;28;20455;-49
2023/07/10 06:24:39;;;;;;;12.80;6.83;;;18.00;99.90;;;;;;5248462;28;20630;-47
2023/07/10 06:27:10;;;;;;;13.30;8.03;;;17.80;99.90;;;;;;5240967;28;20473;-48
2023/07/10 06:29:41;;;;;;;15.13;8.97;;;17.70;99.90;;;;;;5226024;28;20437;-48
2023/07/10 06:32:11;;;;;;;9.50;8.60;;;17.70;99.90;;;;;;5214538;28;20428;-47
2023/07/10 06:34:42;;;;;;;14.50;8.83;;;17.70;99.90;;;;;;5242386;28;20385;-48
2023/07/10 06:37:13;;;;;;;14.00;8.17;;;17.80;99.90;;;;;;5225365;28;20181;-47
2023/07/10 06:39:43;;;;;;;10.20;8.37;;;17.90;99.90;;;;;;5210948;28;20647;-47
2023/07/10 06:42:14;;;;;;;13.10;8.53;;;18.00;99.90;;;;;;5240995;28;20189;-46
2023/07/10 06:44:45;;;;;;;11.33;8.67;;;18.10;99.90;;;;;;5227349;28;20654;-47
2023/07/10 06:47:15;;;;;;;16.23;8.97;;;18.20;99.90;;;;;;5242832;28;20210;-47
2023/07/10 06:49:46;;;;;;;13.33;9.00;;;18.30;99.90;;;;;;5229888;28;20178;-46
2023/07/10 06:52:17;;;;;;;14.50;8.67;;;18.50;99.90;;;;;;5246717;28;20187;-47
2023/07/10 06:54:47;;;;;;;11.30;7.63;;;18.60;99.90;;;;;;5242553;28;20174;-46
2023/07/10 06:57:19;;;;;;;9.83;7.80;;;18.80;99.90;;;;;;5245615;28;20614;-47
2023/07/10 06:59:49;;;;;;;13.87;8.10;;;19.00;99.90;;;;;;5229452;28;20311;-47
2023/07/10 07:02:20;;;;;;;10.20;8.60;;;19.30;99.90;;;;;;5229491;28;20431;-47
2023/07/10 07:04:51;;;;;;;7.93;7.17;;;20.00;99.90;;;;;;5241520;28;20187;-48
2023/07/10 07:07:21;;;;;;;12.93;7.50;;;20.80;99.90;;;;;;5243730;28;20207;-47
2023/07/10 07:09:52;;;;;;;8.90;6.97;;;21.20;99.90;;;;;;5225177;28;20175;-47
2023/07/10 07:12:22;;;;;;;8.97;6.73;;;21.20;99.90;;;;;;5200484;28;20189;-48
2023/07/10 07:14:53;;;;;;;11.10;6.17;;;21.30;99.90;;;;;;5215468;28;20334;-47
2023/07/10 07:17:24;;;;;;;5.67;5.07;;;21.70;99.90;;;;;;5245688;28;20214;-46
2023/07/10 07:19:54;;;;;;;9.73;6.07;;;21.80;99.90;;;;;;5234090;28;20236;-46
2023/07/10 07:22:25;;;;;;;6.23;5.50;;;22.00;99.90;;;;;;5230273;28;20198;-46
2023/07/10 07:24:55;;;;;;;7.93;5.53;;;22.20;99.90;;;;;;5232361;28;20190;-47
2023/07/10 07:27:28;;;;;;;6.73;5.53;;;22.30;99.90;;;;;;5243119;28;20701;-46
2023/07/10 07:30:04;;;;;;;5.60;5.20;;;22.70;99.90;;;;;;5231621;28;20309;-47
2023/07/10 07:32:34;;;;;;;6.97;5.37;;;23.60;99.90;;;;;;5233109;28;20431;-46
2023/07/10 07:35:05;;;;;;;7.97;6.03;;;24.10;99.90;;;;;;5249685;28;20428;-46
2023/07/10 07:37:36;;;;;;;4.67;4.20;;;24.20;99.90;;;;;;5246887;28;20185;-46
2023/07/10 07:40:09;;;;;;;7.77;5.23;;;24.80;99.90;;;;;;5243749;28;20273;-48
2023/07/10 07:42:40;;;;;;;10.73;6.03;;;27.20;97.60;;;;;;5229386;28;20545;-46
2023/07/10 07:45:12;;;;;;;6.23;5.27;;;29.70;81.10;;;;;;5242484;28;20451;-47
2023/07/10 07:47:43;;;;;;;8.87;5.20;;;31.20;61.10;;;;;;5240576;28;20235;-47
2023/07/10 07:50:14;;;;;;;9.80;4.73;;;32.10;55.10;;;;;;5232531;28;20465;-47
2023/07/10 07:52:46;;;;;;;7.00;4.80;;;32.40;50.10;;;;;;5246923;28;20495;-48
2023/07/10 07:55:17;;;;;;;6.30;5.20;;;32.40;50.30;;;;;;5240368;28;20649;-48
2023/07/10 07:57:48;;;;;;;7.83;5.30;;;32.90;48.60;;;;;;5250022;28;20436;-47
2023/07/10 08:00:18;;;;;;;12.13;5.70;;;33.50;45.80;;;;;;5244686;28;20221;-47
2023/07/10 08:02:49;;;;;;;17.10;4.83;;;33.60;43.90;;;;;;5234181;28;20197;-48
2023/07/10 08:05:19;;;;;;;8.13;5.13;;;33.70;43.90;;;;;;5243524;28;20225;-48
2023/07/10 08:07:50;;;;;;;4.80;4.20;;;33.40;42.50;;;;;;5230570;28;20179;-47
2023/07/10 08:10:21;;;;;;;8.07;4.80;;;33.10;42.80;;;;;;5233319;28;20273;-48
2023/07/10 08:12:51;;;;;;;5.87;4.90;;;33.60;42.40;;;;;;5253155;28;20189;-47
2023/07/10 08:15:22;;;;;;;9.23;4.43;;;34.00;41.30;;;;;;5248516;28;20197;-47
2023/07/10 08:17:52;;;;;;;5.03;4.53;;;33.80;42.70;;;;;;5245743;28;20201;-48
2023/07/10 08:20:23;;;;;;;6.23;4.60;;;34.40;41.40;;;;;;5249987;28;20208;-47
2023/07/10 08:22:54;;;;;;;6.10;5.10;;;35.20;40.90;;;;;;5226875;28;20692;-47
2023/07/10 08:25:25;;;;;;;6.47;5.63;;;35.70;37.50;;;;;;5246156;28;20666;-48
2023/07/10 08:27:58;;;;;;;7.60;4.57;;;35.10;38.20;;;;;;5241493;28;20243;-46
2023/07/10 08:30:28;;;;;;;4.40;3.93;;;34.80;38.60;;;;;;5241736;28;20213;-47
2023/07/10 08:32:59;;;;;;;8.70;4.30;;;35.40;39.00;;;;;;5234901;28;20187;-48
2023/07/10 08:35:31;;;;;;;7.03;4.70;;;36.40;37.50;;;;;;5212235;28;20209;-48
2023/07/10 08:38:02;;;;;;;12.75;4.07;;;36.70;36.90;;;;;;5242949;28;20185;-48
2023/07/10 08:40:35;;;;;;;5.85;5.15;;;37.20;36.00;;;;;;5235747;28;20257;-48
2023/07/10 08:43:27;;;;;;;9.38;4.95;;;37.60;35.00;;;;;;5249920;28;20654;-48
2023/07/10 08:46:18;;;;;;;4.35;3.95;;;37.10;35.30;;;;;;5230586;28;20251;-48
2023/07/10 08:49:02;;;;;;;5.57;5.07;;;36.20;36.70;;;;;;5229860;28;20196;-48
2023/07/10 08:52:02;;;;;;;12.27;4.97;;;35.30;37.20;;;;;;5226708;28;20221;-48
2023/07/10 08:54:32;;;;;;;4.70;4.30;;;34.10;38.60;;;;;;5230816;28;20657;-49
2023/07/10 08:57:38;;;;;;;4.57;4.20;;;32.80;40.50;;;;;;5223004;28;20211;-49
2023/07/10 09:00:12;;;;;;;5.60;5.10;;;31.80;42.40;;;;;;5197478;28;20217;-48
2023/07/10 09:02:55;;;;;;;8.07;5.90;;;31.20;43.10;;;;;;5233802;28;20197;-48
2023/07/10 09:05:29;;;;;;;6.80;5.03;;;30.60;43.00;;;;;;5225696;28;20443;-47
2023/07/10 09:08:04;;;;;;;12.53;4.73;;;30.10;45.00;;;;;;5247817;28;20425;-47
2023/07/10 09:10:46;;;;;;;7.27;4.60;;;30.20;44.60;;;;;;5214615;28;20439;-47
2023/07/10 09:13:23;;;;;;;4.20;3.90;;;29.90;45.10;;;;;;5224132;28;20440;-56
2023/07/10 09:15:56;;;;;;;8.37;4.73;;;30.00;45.50;;;;;;5241438;28;20435;-47
2023/07/10 09:18:52;;;;;;;5.60;4.37;;;30.10;45.70;;;;;;5238107;28;20443;-48
2023/07/10 09:21:31;;;;;;;6.13;4.80;;;30.10;46.00;;;;;;5236772;28;20482;-48
2023/07/10 09:24:04;;;;;;;4.53;4.23;;;30.50;46.30;;;;;;5230772;28;20438;-47
2023/07/10 09:26:38;;;;;;;10.63;5.70;;;30.90;45.00;;;;;;5245340;28;20975;-49
2023/07/10 09:29:15;;;;;;;4.40;4.00;;;31.10;44.90;;;;;;5227537;28;20831;-47
2023/07/10 09:32:15;;;;;;;4.37;4.07;;;31.00;44.90;;;;;;5233910;28;20492;-48
2023/07/10 09:34:50;;;;;;;9.73;5.27;;;31.20;44.70;;;;;;5227196;28;20425;-48
2023/07/10 09:37:24;;;;;;;14.80;5.17;;;31.30;44.10;;;;;;5241042;28;20424;-49
2023/07/10 09:39:54;;;;;;;5.20;4.70;;;31.30;45.10;;;;;;5245759;28;20419;-48
2023/07/10 09:42:33;;;;;;;7.50;4.90;;;31.60;44.70;;;;;;5231418;28;20774;-48
2023/07/10 09:45:08;;;;;;;5.90;4.90;;;31.70;43.80;;;;;;5232568;28;20193;-48
2023/07/10 09:47:43;;;;;;;10.23;5.10;;;31.40;43.50;;;;;;5233184;28;20464;-49
2023/07/10 09:50:17;;;;;;;5.00;4.50;;;31.40;44.00;;;;;;5218396;28;20206;-48
2023/07/10 09:52:53;;;;;;;6.20;5.00;;;31.50;44.20;;;;;;5224878;28;20792;-47
2023/07/10 09:55:24;;;;;;;4.27;4.03;;;31.50;44.50;;;;;;5241727;28;20399;-47
2023/07/10 09:58:01;;;;;;;6.27;4.77;;;31.50;44.40;;;;;;5229930;28;20431;-48
2023/07/10 10:00:31;;;;;;;7.63;5.73;;;31.70;45.30;;;;;;5246455;28;20232;-48
2023/07/10 10:03:09;;;;;;;14.60;5.00;;;31.70;44.80;;;;;;5225524;28;20434;-48
2023/07/10 10:05:41;;;;;;;4.93;4.60;;;31.50;44.00;;;;;;5213611;28;20187;-47
2023/07/10 10:08:30;;;;;;;5.20;4.70;;;31.40;44.40;;;;;;5243169;28;20182;-47
2023/07/10 10:11:11;;;;;;;5.67;5.17;;;31.40;44.80;;;;;;5231124;28;20601;-47
2023/07/10 10:13:56;;;;;;;11.63;6.47;;;31.40;44.60;;;;;;5248477;28;20420;-47
2023/07/10 10:16:43;;;;;;;5.40;5.00;;;31.40;44.50;;;;;;5218397;28;20733;-47
2023/07/10 10:19:37;;;;;;;8.87;4.90;;;31.10;44.50;;;;;;5241148;28;20205;-47
2023/07/10 10:22:12;;;;;;;7.70;4.83;;;31.00;45.30;;;;;;5243701;28;20502;-46
2023/07/10 10:24:44;;;;;;;6.30;4.43;;;31.10;44.90;;;;;;5240586;28;20803;-47
2023/07/10 10:27:56;;;;;;;7.13;6.30;;;31.20;45.10;;;;;;5237375;28;20486;-47
2023/07/10 10:30:40;;;;;;;8.00;5.27;;;31.40;44.90;;;;;;5212205;28;20467;-47
2023/07/10 10:33:16;;;;;;;6.50;5.70;;;31.70;44.70;;;;;;5229381;28;20212;-46
2023/07/10 10:36:15;;;;;;;7.70;4.60;;;31.90;42.80;;;;;;5219641;28;20185;-48
2023/07/10 10:39:28;;;;;;;5.43;4.97;;;32.00;42.80;;;;;;5233684;28;20270;-47
2023/07/10 10:42:21;;;;;;;4.67;4.27;;;32.30;42.60;;;;;;5222490;28;20274;-47
2023/07/10 10:45:05;;;;;;;11.80;4.63;;;32.30;42.70;;;;;;5241434;28;20197;-47
2023/07/10 10:47:47;;;;;;;4.30;4.10;;;32.30;43.00;;;;;;5246947;28;20209;-47
2023/07/10 10:50:47;;;;;;;6.10;5.57;;;32.40;43.40;;;;;;5241898;22;20591;-44
2023/07/10 10:53:55;;;;;;;9.73;4.70;;;31.90;44.00;;;;;;5209323;28;20186;-44
2023/07/10 10:56:34;;;;;;;5.77;5.07;;;31.90;44.70;;;;;;5246355;28;20182;-43
2023/07/10 10:59:32;;;;;;;4.90;4.60;;;32.20;44.60;;;;;;5249000;28;20564;-45
2023/07/10 11:02:02;;;;;;;3.97;3.77;;;32.30;44.10;;;;;;5247981;28;20658;-44
2023/07/10 11:04:40;;;;;;;4.20;3.90;;;32.50;44.20;;;;;;5242965;28;20177;-45
2023/07/10 11:07:14;;;;;;;19.13;4.70;;;32.80;43.80;;;;;;5248985;28;20229;-43
2023/07/10 11:10:02;;;;;;;8.33;4.67;;;32.90;43.30;;;;;;5228234;28;20186;-44
2023/07/10 11:12:33;;;;;;;5.60;4.07;;;32.90;43.30;;;;;;5235062;28;20708;-45
2023/07/10 11:15:15;;;;;;;6.87;5.70;;;32.90;43.50;;;;;;5246625;28;20185;-44
2023/07/10 11:17:50;;;;;;;5.37;4.20;;;32.80;43.50;;;;;;5244858;28;20217;-44
2023/07/10 11:20:24;;;;;;;4.73;4.30;;;32.50;44.20;;;;;;5237255;28;20213;-45
2023/07/10 11:22:57;;;;;;;5.27;4.37;;;32.50;43.30;;;;;;5231570;28;20190;-44
2023/07/10 11:25:42;;;;;;;8.37;5.27;;;32.50;42.80;;;;;;5234449;28;20178;-44
2023/07/10 11:28:22;;;;;;;6.20;4.93;;;32.60;42.40;;;;;;5251708;28;20182;-45
2023/07/10 11:31:35;;;;;;;6.53;4.50;;;32.60;42.40;;;;;;5247525;28;20197;-45
2023/07/10 11:34:05;;;;;;;6.10;4.60;;;32.40;42.80;;;;;;5235098;28;20190;-46
2023/07/10 11:36:40;;;;;;;6.73;5.27;;;32.40;43.60;;;;;;5220904;28;20192;-44
2023/07/10 11:39:18;;;;;;;4.67;4.17;;;32.30;44.00;;;;;;5231810;28;20231;-44
2023/07/10 11:41:48;;;;;;;16.10;6.20;;;32.40;44.10;;;;;;5223612;28;20202;-45
2023/07/10 11:44:31;;;;;;;6.47;5.27;;;32.50;44.50;;;;;;5245702;28;20232;-44
2023/07/10 11:47:16;;;;;;;9.83;6.77;;;32.40;45.40;;;;;;5221603;28;20278;-43
2023/07/10 11:49:55;;;;;;;6.93;6.23;;;32.30;46.10;;;;;;5236296;28;20265;-44
2023/07/10 11:52:28;;;;;;;7.97;7.10;;;32.20;47.00;;;;;;5244180;28;20196;-43
2023/07/10 11:55:05;;;;;;;7.90;6.27;;;31.90;48.00;;;;;;5231487;28;20212;-45
2023/07/10 11:57:36;;;;;;;9.13;6.73;;;31.50;49.00;;;;;;5232869;28;20197;-44
2023/07/10 12:00:13;;;;;;;8.87;6.90;;;31.20;49.90;;;;;;5239231;28;20666;-45
2023/07/10 12:02:52;;;;;;;6.83;6.00;;;31.10;49.60;;;;;;5247571;28;20440;-43
2023/07/10 12:05:35;;;;;;;6.87;5.80;;;31.10;48.30;;;;;;5246966;28;20174;-46
2023/07/10 12:08:14;;;;;;;6.17;5.13;;;31.10;47.80;;;;;;5247614;28;20257;-44
2023/07/10 12:10:47;;;;;;;8.07;6.90;;;31.30;46.60;;;;;;5248431;28;20193;-44
2023/07/10 12:13:29;;;;;;;8.30;6.10;;;31.20;46.80;;;;;;5231925;28;20189;-43
2023/07/10 12:16:11;;;;;;;10.60;6.47;;;30.90;47.20;;;;;;5234297;28;20186;-44
2023/07/10 12:18:43;;;;;;;7.57;5.63;;;30.60;48.20;;;;;;5220616;28;20562;-44
2023/07/10 12:21:22;;;;;;;5.63;5.20;;;30.40;49.40;;;;;;5251664;28;20480;-43
2023/07/10 12:24:01;;;;;;;5.73;5.17;;;30.20;49.50;;;;;;5249746;28;20432;-45
2023/07/10 12:26:32;;;;;;;15.63;5.50;;;30.30;49.30;;;;;;5247552;28;21053;-44
2023/07/10 12:29:02;;;;;;;7.13;4.93;;;30.00;48.70;;;;;;5247604;28;20425;-43
2023/07/10 12:31:35;;;;;;;9.10;5.07;;;29.70;49.50;;;;;;5252177;28;20284;-44
2023/07/10 12:34:18;;;;;;;6.90;5.43;;;29.60;50.50;;;;;;5222942;28;20182;-44
2023/07/10 12:36:51;;;;;;;6.50;5.43;;;29.50;50.60;;;;;;5233920;28;20435;-44
2023/07/10 12:39:23;;;;;;;5.83;5.30;;;29.50;52.20;;;;;;5249154;28;20444;-46
2023/07/10 12:41:55;;;;;;;5.70;5.20;;;29.60;52.80;;;;;;5246969;28;20967;-44
2023/07/10 12:44:28;;;;;;;6.90;6.17;;;29.60;53.30;;;;;;5244994;28;20447;-43
2023/07/10 12:47:02;;;;;;;6.40;5.80;;;29.60;53.50;;;;;;5248691;28;20954;-44
2023/07/10 12:49:34;;;;;;;7.77;5.63;;;29.90;53.30;;;;;;5226859;28;20424;-43
2023/07/10 12:52:06;;;;;;;7.93;5.90;;;29.80;53.00;;;;;;5239505;28;20478;-44
2023/07/10 12:54:46;;;;;;;8.70;5.63;;;29.60;53.40;;;;;;5230178;28;20472;-43
2023/07/10 12:57:22;;;;;;;9.23;6.37;;;29.30;54.80;;;;;;5249421;28;20432;-44
2023/07/10 13:00:01;;;;;;;12.60;6.33;;;29.20;56.80;;;;;;5249663;28;20927;-44
2023/07/10 13:02:42;;;;;;;6.73;6.10;;;28.80;63.10;;;;;;5247504;28;20468;-45
2023/07/10 13:05:22;;;;;;;11.00;5.90;;;28.50;66.20;;;;;;5248276;28;20428;-45
2023/07/10 13:07:57;;;;;;;8.83;6.20;;;28.50;68.40;;;;;;5210629;28;20452;-44
2023/07/10 13:10:43;;;;;;;9.37;6.53;;;28.70;67.90;;;;;;5238335;28;20916;-44
2023/07/10 13:13:18;;;;;;;8.00;6.43;;;28.80;67.00;;;;;;5236097;28;20436;-44
2023/07/10 13:15:49;;;;;;;9.63;6.00;;;28.30;66.60;;;;;;5246591;28;20444;-46
2023/07/10 13:18:29;;;;;;;8.93;6.80;;;28.10;67.60;;;;;;5225836;28;20493;-44
2023/07/10 13:21:01;;;;;;;6.33;5.80;;;28.30;68.00;;;;;;5236910;28;20635;-45
2023/07/10 13:23:31;;;;;;;5.90;5.40;;;28.40;67.00;;;;;;5245862;28;20425;-44